sensor_id;sensor_type;location;lat;lon;timestamp;P1;durP1;ratioP1;P2;durP2;ratioP2
46899;SDS011;32647;49.382;7.078;2022-12-07T00:00:40;21.80;;;13.98;;
46899;SDS011;32647;49.382;7.078;2022-12-07T00:03:26;19.92;;;13.43;;
46899;SDS011;32647;49.382;7.078;2022-12-07T00:06:12;22.23;;;13.88;;
46899;SDS011;32647;49.382;7.078;2022-12-07T00:08:59;19.48;;;14.02;;
46899;SDS011;32647;49.382;7.078;2022-12-07T00:11:48;23.52;;;15.07;;
46899;SDS011;32647;49.382;7.078;2022-12-07T00:14:35;23.75;;;15.80;;
46899;SDS011;32647;49.382;7.078;2022-12-07T00:17:21;23.27;;;15.45;;
46899;SDS011;32647;49.382;7.078;2022-12-07T00:20:07;26.45;;;15.32;;
46899;SDS011;32647;49.382;7.078;2022-12-07T00:22:53;23.63;;;15.30;;
46899;SDS011;32647;49.382;7.078;2022-12-07T00:25:39;23.05;;;15.35;;
46899;SDS011;32647;49.382;7.078;2022-12-07T00:28:25;24.08;;;15.68;;
46899;SDS011;32647;49.382;7.078;2022-12-07T00:31:11;24.63;;;14.85;;
46899;SDS011;32647;49.382;7.078;2022-12-07T00:33:58;23.80;;;16.25;;
46899;SDS011;32647;49.382;7.078;2022-12-07T00:36:45;22.27;;;15.23;;
46899;SDS011;32647;49.382;7.078;2022-12-07T00:39:30;21.52;;;14.30;;
46899;SDS011;32647;49.382;7.078;2022-12-07T00:42:16;19.58;;;13.35;;
46899;SDS011;32647;49.382;7.078;2022-12-07T00:45:03;23.33;;;15.15;;
46899;SDS011;32647;49.382;7.078;2022-12-07T00:47:49;22.30;;;14.98;;
46899;SDS011;32647;49.382;7.078;2022-12-07T00:50:35;23.52;;;15.40;;
46899;SDS011;32647;49.382;7.078;2022-12-07T00:53:25;21.77;;;14.63;;
46899;SDS011;32647;49.382;7.078;2022-12-07T00:56:12;23.55;;;15.02;;
46899;SDS011;32647;49.382;7.078;2022-12-07T00:59:03;22.90;;;14.45;;
46899;SDS011;32647;49.382;7.078;2022-12-07T01:01:49;20.63;;;14.07;;
46899;SDS011;32647;49.382;7.078;2022-12-07T01:04:35;21.92;;;14.10;;
46899;SDS011;32647;49.382;7.078;2022-12-07T01:07:21;22.13;;;14.73;;
46899;SDS011;32647;49.382;7.078;2022-12-07T01:10:07;24.30;;;15.07;;
46899;SDS011;32647;49.382;7.078;2022-12-07T01:12:54;25.02;;;14.60;;
46899;SDS011;32647;49.382;7.078;2022-12-07T01:15:40;20.55;;;13.65;;
46899;SDS011;32647;49.382;7.078;2022-12-07T01:18:28;23.95;;;14.05;;
46899;SDS011;32647;49.382;7.078;2022-12-07T01:21:16;22.92;;;14.13;;
46899;SDS011;32647;49.382;7.078;2022-12-07T01:24:05;22.77;;;14.38;;
46899;SDS011;32647;49.382;7.078;2022-12-07T01:26:53;28.40;;;15.77;;
46899;SDS011;32647;49.382;7.078;2022-12-07T01:29:39;24.48;;;15.18;;
46899;SDS011;32647;49.382;7.078;2022-12-07T01:32:25;26.90;;;16.80;;
46899;SDS011;32647;49.382;7.078;2022-12-07T01:35:11;24.75;;;15.07;;
46899;SDS011;32647;49.382;7.078;2022-12-07T01:37:57;26.58;;;14.35;;
46899;SDS011;32647;49.382;7.078;2022-12-07T01:40:43;26.00;;;14.13;;
46899;SDS011;32647;49.382;7.078;2022-12-07T01:43:30;23.55;;;14.52;;
46899;SDS011;32647;49.382;7.078;2022-12-07T01:46:17;22.25;;;14.45;;
46899;SDS011;32647;49.382;7.078;2022-12-07T01:49:06;25.83;;;15.73;;
46899;SDS011;32647;49.382;7.078;2022-12-07T01:51:58;22.42;;;14.20;;
46899;SDS011;32647;49.382;7.078;2022-12-07T01:54:49;22.80;;;13.95;;
46899;SDS011;32647;49.382;7.078;2022-12-07T01:57:40;23.05;;;13.82;;
46899;SDS011;32647;49.382;7.078;2022-12-07T02:00:28;23.08;;;14.25;;
46899;SDS011;32647;49.382;7.078;2022-12-07T02:03:16;23.77;;;14.60;;
46899;SDS011;32647;49.382;7.078;2022-12-07T02:06:13;25.10;;;14.38;;
46899;SDS011;32647;49.382;7.078;2022-12-07T02:09:03;21.88;;;14.05;;
46899;SDS011;32647;49.382;7.078;2022-12-07T02:11:50;25.73;;;14.57;;
46899;SDS011;32647;49.382;7.078;2022-12-07T02:14:36;21.77;;;14.32;;
46899;SDS011;32647;49.382;7.078;2022-12-07T02:17:25;24.17;;;14.95;;
46899;SDS011;32647;49.382;7.078;2022-12-07T02:24:05;25.00;;;15.32;;
46899;SDS011;32647;49.382;7.078;2022-12-07T02:30:08;23.67;;;15.00;;
46899;SDS011;32647;49.382;7.078;2022-12-07T02:33:05;24.88;;;14.88;;
46899;SDS011;32647;49.382;7.078;2022-12-07T02:36:02;23.88;;;13.65;;
46899;SDS011;32647;49.382;7.078;2022-12-07T02:38:57;24.65;;;14.52;;
46899;SDS011;32647;49.382;7.078;2022-12-07T02:41:55;20.13;;;12.93;;
46899;SDS011;32647;49.382;7.078;2022-12-07T02:44:46;23.42;;;14.05;;
46899;SDS011;32647;49.382;7.078;2022-12-07T02:47:32;22.90;;;14.75;;
46899;SDS011;32647;49.382;7.078;2022-12-07T02:50:21;26.02;;;14.77;;
46899;SDS011;32647;49.382;7.078;2022-12-07T02:53:27;23.85;;;13.80;;
46899;SDS011;32647;49.382;7.078;2022-12-07T02:56:41;24.38;;;14.82;;
46899;SDS011;32647;49.382;7.078;2022-12-07T03:14:38;26.88;;;15.13;;
46899;SDS011;32647;49.382;7.078;2022-12-07T03:17:28;27.70;;;16.10;;
46899;SDS011;32647;49.382;7.078;2022-12-07T03:20:19;23.98;;;14.07;;
46899;SDS011;32647;49.382;7.078;2022-12-07T03:23:08;29.58;;;15.60;;
46899;SDS011;32647;49.382;7.078;2022-12-07T03:25:58;27.35;;;15.85;;
46899;SDS011;32647;49.382;7.078;2022-12-07T03:28:48;28.02;;;15.75;;
46899;SDS011;32647;49.382;7.078;2022-12-07T03:31:41;27.08;;;15.95;;
46899;SDS011;32647;49.382;7.078;2022-12-07T03:34:33;23.73;;;15.10;;
46899;SDS011;32647;49.382;7.078;2022-12-07T03:37:48;26.73;;;16.23;;
46899;SDS011;32647;49.382;7.078;2022-12-07T03:40:49;29.60;;;17.08;;
46899;SDS011;32647;49.382;7.078;2022-12-07T03:49:24;32.65;;;17.80;;
46899;SDS011;32647;49.382;7.078;2022-12-07T03:55:23;31.23;;;17.55;;
46899;SDS011;32647;49.382;7.078;2022-12-07T03:58:15;30.88;;;17.77;;
46899;SDS011;32647;49.382;7.078;2022-12-07T04:01:04;33.45;;;18.58;;
46899;SDS011;32647;49.382;7.078;2022-12-07T04:03:50;34.78;;;18.00;;
46899;SDS011;32647;49.382;7.078;2022-12-07T04:06:36;34.77;;;17.67;;
46899;SDS011;32647;49.382;7.078;2022-12-07T04:09:22;39.75;;;19.38;;
46899;SDS011;32647;49.382;7.078;2022-12-07T04:12:08;36.55;;;18.40;;
46899;SDS011;32647;49.382;7.078;2022-12-07T04:14:54;36.17;;;21.00;;
46899;SDS011;32647;49.382;7.078;2022-12-07T04:17:40;33.67;;;18.23;;
46899;SDS011;32647;49.382;7.078;2022-12-07T04:20:26;37.17;;;20.10;;
46899;SDS011;32647;49.382;7.078;2022-12-07T04:23:12;36.58;;;18.40;;
46899;SDS011;32647;49.382;7.078;2022-12-07T04:25:58;31.10;;;18.40;;
46899;SDS011;32647;49.382;7.078;2022-12-07T04:28:44;36.55;;;20.05;;
46899;SDS011;32647;49.382;7.078;2022-12-07T04:31:30;36.13;;;19.35;;
46899;SDS011;32647;49.382;7.078;2022-12-07T04:34:16;32.83;;;18.35;;
46899;SDS011;32647;49.382;7.078;2022-12-07T04:37:02;32.83;;;18.75;;
46899;SDS011;32647;49.382;7.078;2022-12-07T04:39:49;33.05;;;18.83;;
46899;SDS011;32647;49.382;7.078;2022-12-07T04:42:35;34.88;;;18.38;;
46899;SDS011;32647;49.382;7.078;2022-12-07T04:45:20;34.42;;;18.48;;
46899;SDS011;32647;49.382;7.078;2022-12-07T04:48:06;36.03;;;18.10;;
46899;SDS011;32647;49.382;7.078;2022-12-07T04:50:52;35.90;;;18.92;;
46899;SDS011;32647;49.382;7.078;2022-12-07T04:53:38;32.67;;;17.85;;
46899;SDS011;32647;49.382;7.078;2022-12-07T04:56:24;37.20;;;19.20;;
46899;SDS011;32647;49.382;7.078;2022-12-07T04:59:11;35.40;;;19.10;;
46899;SDS011;32647;49.382;7.078;2022-12-07T05:01:58;34.70;;;19.45;;
46899;SDS011;32647;49.382;7.078;2022-12-07T05:04:44;37.88;;;19.30;;
46899;SDS011;32647;49.382;7.078;2022-12-07T05:07:30;36.53;;;18.85;;
46899;SDS011;32647;49.382;7.078;2022-12-07T05:10:16;39.22;;;19.90;;
46899;SDS011;32647;49.382;7.078;2022-12-07T05:13:02;33.63;;;19.38;;
46899;SDS011;32647;49.382;7.078;2022-12-07T05:15:48;38.38;;;19.63;;
46899;SDS011;32647;49.382;7.078;2022-12-07T05:18:34;32.80;;;18.48;;
46899;SDS011;32647;49.382;7.078;2022-12-07T05:21:20;38.83;;;20.42;;
46899;SDS011;32647;49.382;7.078;2022-12-07T05:24:07;37.97;;;20.17;;
46899;SDS011;32647;49.382;7.078;2022-12-07T05:26:55;34.97;;;19.08;;
46899;SDS011;32647;49.382;7.078;2022-12-07T05:29:40;41.08;;;21.75;;
46899;SDS011;32647;49.382;7.078;2022-12-07T05:32:26;44.33;;;21.92;;
46899;SDS011;32647;49.382;7.078;2022-12-07T05:35:12;36.85;;;19.98;;
46899;SDS011;32647;49.382;7.078;2022-12-07T05:37:58;35.15;;;19.70;;
46899;SDS011;32647;49.382;7.078;2022-12-07T05:40:44;41.28;;;21.80;;
46899;SDS011;32647;49.382;7.078;2022-12-07T05:43:30;43.40;;;20.80;;
46899;SDS011;32647;49.382;7.078;2022-12-07T05:46:17;42.53;;;20.35;;
46899;SDS011;32647;49.382;7.078;2022-12-07T05:49:03;43.08;;;23.00;;
46899;SDS011;32647;49.382;7.078;2022-12-07T05:54:29;40.95;;;20.80;;
46899;SDS011;32647;49.382;7.078;2022-12-07T05:57:15;40.00;;;22.67;;
46899;SDS011;32647;49.382;7.078;2022-12-07T06:00:02;37.67;;;21.15;;
46899;SDS011;32647;49.382;7.078;2022-12-07T06:02:49;40.97;;;21.88;;
46899;SDS011;32647;49.382;7.078;2022-12-07T06:05:35;40.97;;;20.42;;
46899;SDS011;32647;49.382;7.078;2022-12-07T06:08:21;38.17;;;21.25;;
46899;SDS011;32647;49.382;7.078;2022-12-07T06:11:06;39.58;;;22.27;;
46899;SDS011;32647;49.382;7.078;2022-12-07T06:14:11;41.13;;;20.83;;
46899;SDS011;32647;49.382;7.078;2022-12-07T06:16:57;43.38;;;21.25;;
46899;SDS011;32647;49.382;7.078;2022-12-07T06:19:44;39.88;;;21.50;;
46899;SDS011;32647;49.382;7.078;2022-12-07T06:22:30;35.28;;;20.75;;
46899;SDS011;32647;49.382;7.078;2022-12-07T06:25:15;44.45;;;23.02;;
46899;SDS011;32647;49.382;7.078;2022-12-07T06:28:01;45.55;;;22.42;;
46899;SDS011;32647;49.382;7.078;2022-12-07T06:30:47;39.70;;;22.08;;
46899;SDS011;32647;49.382;7.078;2022-12-07T06:33:43;42.95;;;23.45;;
46899;SDS011;32647;49.382;7.078;2022-12-07T06:36:29;41.13;;;22.35;;
46899;SDS011;32647;49.382;7.078;2022-12-07T06:39:15;45.38;;;22.15;;
46899;SDS011;32647;49.382;7.078;2022-12-07T06:42:01;44.10;;;23.60;;
46899;SDS011;32647;49.382;7.078;2022-12-07T06:44:47;45.42;;;22.33;;
46899;SDS011;32647;49.382;7.078;2022-12-07T06:47:33;49.58;;;23.60;;
46899;SDS011;32647;49.382;7.078;2022-12-07T06:50:19;46.28;;;24.63;;
46899;SDS011;32647;49.382;7.078;2022-12-07T06:53:05;43.13;;;23.63;;
46899;SDS011;32647;49.382;7.078;2022-12-07T06:55:51;48.72;;;25.25;;
46899;SDS011;32647;49.382;7.078;2022-12-07T06:58:37;44.08;;;23.45;;
46899;SDS011;32647;49.382;7.078;2022-12-07T07:01:23;45.78;;;22.48;;
46899;SDS011;32647;49.382;7.078;2022-12-07T07:04:09;47.90;;;23.52;;
46899;SDS011;32647;49.382;7.078;2022-12-07T07:06:54;45.85;;;25.33;;
46899;SDS011;32647;49.382;7.078;2022-12-07T07:09:40;42.85;;;22.60;;
46899;SDS011;32647;49.382;7.078;2022-12-07T07:12:26;43.92;;;23.23;;
46899;SDS011;32647;49.382;7.078;2022-12-07T07:15:12;40.75;;;21.67;;
46899;SDS011;32647;49.382;7.078;2022-12-07T07:17:58;48.67;;;23.75;;
46899;SDS011;32647;49.382;7.078;2022-12-07T07:20:45;47.22;;;23.77;;
46899;SDS011;32647;49.382;7.078;2022-12-07T07:23:31;49.22;;;24.58;;
46899;SDS011;32647;49.382;7.078;2022-12-07T07:26:17;50.22;;;24.77;;
46899;SDS011;32647;49.382;7.078;2022-12-07T07:29:03;49.22;;;23.77;;
46899;SDS011;32647;49.382;7.078;2022-12-07T07:31:49;49.58;;;26.42;;
46899;SDS011;32647;49.382;7.078;2022-12-07T07:34:34;53.50;;;25.83;;
46899;SDS011;32647;49.382;7.078;2022-12-07T07:37:20;49.42;;;26.33;;
46899;SDS011;32647;49.382;7.078;2022-12-07T07:40:07;51.97;;;25.73;;
46899;SDS011;32647;49.382;7.078;2022-12-07T07:42:54;52.63;;;24.92;;
46899;SDS011;32647;49.382;7.078;2022-12-07T07:45:40;52.45;;;25.83;;
46899;SDS011;32647;49.382;7.078;2022-12-07T07:48:26;54.60;;;29.05;;
46899;SDS011;32647;49.382;7.078;2022-12-07T07:51:12;55.30;;;30.55;;
46899;SDS011;32647;49.382;7.078;2022-12-07T07:53:58;46.80;;;24.52;;
46899;SDS011;32647;49.382;7.078;2022-12-07T07:56:44;50.58;;;27.85;;
46899;SDS011;32647;49.382;7.078;2022-12-07T07:59:30;50.72;;;25.52;;
46899;SDS011;32647;49.382;7.078;2022-12-07T08:02:17;51.10;;;25.25;;
46899;SDS011;32647;49.382;7.078;2022-12-07T08:05:04;52.13;;;25.10;;
46899;SDS011;32647;49.382;7.078;2022-12-07T08:07:50;59.33;;;28.45;;
46899;SDS011;32647;49.382;7.078;2022-12-07T08:10:36;53.25;;;27.48;;
46899;SDS011;32647;49.382;7.078;2022-12-07T08:13:22;52.40;;;27.08;;
46899;SDS011;32647;49.382;7.078;2022-12-07T08:16:09;51.67;;;26.63;;
46899;SDS011;32647;49.382;7.078;2022-12-07T08:18:56;55.67;;;27.65;;
46899;SDS011;32647;49.382;7.078;2022-12-07T08:21:42;52.03;;;26.75;;
46899;SDS011;32647;49.382;7.078;2022-12-07T08:24:28;53.22;;;27.65;;
46899;SDS011;32647;49.382;7.078;2022-12-07T08:27:14;51.08;;;28.65;;
46899;SDS011;32647;49.382;7.078;2022-12-07T08:30:00;57.92;;;28.65;;
46899;SDS011;32647;49.382;7.078;2022-12-07T08:32:46;56.40;;;28.27;;
46899;SDS011;32647;49.382;7.078;2022-12-07T08:35:33;54.75;;;27.60;;
46899;SDS011;32647;49.382;7.078;2022-12-07T08:38:19;52.75;;;26.88;;
46899;SDS011;32647;49.382;7.078;2022-12-07T08:41:05;58.88;;;27.38;;
46899;SDS011;32647;49.382;7.078;2022-12-07T08:43:52;54.03;;;28.05;;
46899;SDS011;32647;49.382;7.078;2022-12-07T08:46:39;56.42;;;28.30;;
46899;SDS011;32647;49.382;7.078;2022-12-07T08:49:41;58.72;;;28.08;;
46899;SDS011;32647;49.382;7.078;2022-12-07T08:52:31;57.55;;;27.98;;
46899;SDS011;32647;49.382;7.078;2022-12-07T08:55:18;56.63;;;28.92;;
46899;SDS011;32647;49.382;7.078;2022-12-07T08:58:05;58.03;;;27.55;;
46899;SDS011;32647;49.382;7.078;2022-12-07T09:00:51;59.15;;;28.45;;
46899;SDS011;32647;49.382;7.078;2022-12-07T09:03:37;59.80;;;29.00;;
46899;SDS011;32647;49.382;7.078;2022-12-07T09:06:23;58.20;;;26.90;;
46899;SDS011;32647;49.382;7.078;2022-12-07T09:09:09;60.35;;;29.48;;
46899;SDS011;32647;49.382;7.078;2022-12-07T09:11:57;52.42;;;27.88;;
46899;SDS011;32647;49.382;7.078;2022-12-07T09:14:43;53.17;;;26.95;;
46899;SDS011;32647;49.382;7.078;2022-12-07T09:17:31;56.63;;;26.13;;
46899;SDS011;32647;49.382;7.078;2022-12-07T09:20:18;48.95;;;25.17;;
46899;SDS011;32647;49.382;7.078;2022-12-07T09:23:07;45.75;;;23.95;;
46899;SDS011;32647;49.382;7.078;2022-12-07T09:25:53;53.88;;;27.85;;
46899;SDS011;32647;49.382;7.078;2022-12-07T09:28:39;46.38;;;23.48;;
46899;SDS011;32647;49.382;7.078;2022-12-07T09:31:25;49.25;;;24.00;;
46899;SDS011;32647;49.382;7.078;2022-12-07T09:34:11;46.08;;;23.48;;
46899;SDS011;32647;49.382;7.078;2022-12-07T09:36:58;43.05;;;21.88;;
46899;SDS011;32647;49.382;7.078;2022-12-07T09:39:46;47.85;;;23.73;;
46899;SDS011;32647;49.382;7.078;2022-12-07T09:42:38;41.13;;;22.88;;
46899;SDS011;32647;49.382;7.078;2022-12-07T09:45:34;40.60;;;21.80;;
46899;SDS011;32647;49.382;7.078;2022-12-07T09:48:32;40.33;;;22.27;;
46899;SDS011;32647;49.382;7.078;2022-12-07T09:51:24;38.50;;;21.25;;
46899;SDS011;32647;49.382;7.078;2022-12-07T09:54:16;39.67;;;21.27;;
46899;SDS011;32647;49.382;7.078;2022-12-07T09:57:02;44.65;;;23.15;;
46899;SDS011;32647;49.382;7.078;2022-12-07T09:59:48;45.47;;;22.63;;
46899;SDS011;32647;49.382;7.078;2022-12-07T10:02:36;43.80;;;22.08;;
46899;SDS011;32647;49.382;7.078;2022-12-07T10:05:25;46.58;;;23.20;;
46899;SDS011;32647;49.382;7.078;2022-12-07T10:08:17;43.63;;;22.98;;
46899;SDS011;32647;49.382;7.078;2022-12-07T10:11:04;44.60;;;22.35;;
46899;SDS011;32647;49.382;7.078;2022-12-07T10:13:55;48.10;;;23.42;;
46899;SDS011;32647;49.382;7.078;2022-12-07T10:16:57;41.05;;;22.25;;
46899;SDS011;32647;49.382;7.078;2022-12-07T10:19:43;41.58;;;23.55;;
46899;SDS011;32647;49.382;7.078;2022-12-07T10:22:29;42.35;;;22.25;;
46899;SDS011;32647;49.382;7.078;2022-12-07T10:25:19;40.80;;;21.35;;
46899;SDS011;32647;49.382;7.078;2022-12-07T10:28:16;42.17;;;21.23;;
46899;SDS011;32647;49.382;7.078;2022-12-07T10:31:15;36.00;;;20.65;;
46899;SDS011;32647;49.382;7.078;2022-12-07T10:34:12;40.58;;;21.48;;
46899;SDS011;32647;49.382;7.078;2022-12-07T10:40:18;43.42;;;21.88;;
46899;SDS011;32647;49.382;7.078;2022-12-07T11:05:05;22.90;;;14.35;;
46899;SDS011;32647;49.382;7.078;2022-12-07T11:14:40;24.40;;;13.32;;
46899;SDS011;32647;49.382;7.078;2022-12-07T11:17:42;25.42;;;13.70;;
46899;SDS011;32647;49.382;7.078;2022-12-07T11:20:48;23.02;;;13.68;;
46899;SDS011;32647;49.382;7.078;2022-12-07T11:33:16;21.13;;;12.57;;
46899;SDS011;32647;49.382;7.078;2022-12-07T11:38:50;20.88;;;12.82;;
46899;SDS011;32647;49.382;7.078;2022-12-07T11:41:39;22.13;;;12.80;;
46899;SDS011;32647;49.382;7.078;2022-12-07T11:44:32;18.75;;;12.25;;
46899;SDS011;32647;49.382;7.078;2022-12-07T11:50:42;14.75;;;10.02;;
46899;SDS011;32647;49.382;7.078;2022-12-07T11:53:38;15.88;;;9.98;;
46899;SDS011;32647;49.382;7.078;2022-12-07T11:56:28;11.25;;;7.70;;
46899;SDS011;32647;49.382;7.078;2022-12-07T12:02:23;10.77;;;6.40;;
46899;SDS011;32647;49.382;7.078;2022-12-07T12:08:14;10.57;;;7.20;;
46899;SDS011;32647;49.382;7.078;2022-12-07T12:14:29;15.57;;;9.07;;
46899;SDS011;32647;49.382;7.078;2022-12-07T12:20:29;10.35;;;7.20;;
46899;SDS011;32647;49.382;7.078;2022-12-07T12:23:24;10.07;;;6.50;;
46899;SDS011;32647;49.382;7.078;2022-12-07T12:26:21;7.32;;;5.13;;
46899;SDS011;32647;49.382;7.078;2022-12-07T12:29:23;12.48;;;6.90;;
46899;SDS011;32647;49.382;7.078;2022-12-07T12:32:21;9.60;;;6.00;;
46899;SDS011;32647;49.382;7.078;2022-12-07T12:44:40;13.45;;;8.38;;
46899;SDS011;32647;49.382;7.078;2022-12-07T12:47:57;12.50;;;7.65;;
46899;SDS011;32647;49.382;7.078;2022-12-07T12:50:44;12.82;;;7.03;;
46899;SDS011;32647;49.382;7.078;2022-12-07T12:53:30;13.48;;;7.50;;
46899;SDS011;32647;49.382;7.078;2022-12-07T13:02:16;12.27;;;7.63;;
46899;SDS011;32647;49.382;7.078;2022-12-07T13:07:56;14.70;;;7.97;;
46899;SDS011;32647;49.382;7.078;2022-12-07T13:10:45;15.57;;;8.35;;
46899;SDS011;32647;49.382;7.078;2022-12-07T13:13:32;19.60;;;9.52;;
46899;SDS011;32647;49.382;7.078;2022-12-07T13:25:22;14.68;;;7.88;;
46899;SDS011;32647;49.382;7.078;2022-12-07T13:28:19;13.80;;;7.72;;
46899;SDS011;32647;49.382;7.078;2022-12-07T13:34:26;12.02;;;8.30;;
46899;SDS011;32647;49.382;7.078;2022-12-07T13:37:23;14.35;;;8.40;;
46899;SDS011;32647;49.382;7.078;2022-12-07T13:40:19;15.70;;;9.00;;
46899;SDS011;32647;49.382;7.078;2022-12-07T13:43:14;14.23;;;8.27;;
46899;SDS011;32647;49.382;7.078;2022-12-07T13:46:02;14.82;;;7.78;;
46899;SDS011;32647;49.382;7.078;2022-12-07T13:48:54;16.52;;;9.07;;
46899;SDS011;32647;49.382;7.078;2022-12-07T13:51:40;13.93;;;9.13;;
46899;SDS011;32647;49.382;7.078;2022-12-07T13:54:26;20.20;;;10.63;;
46899;SDS011;32647;49.382;7.078;2022-12-07T13:57:12;23.30;;;10.82;;
46899;SDS011;32647;49.382;7.078;2022-12-07T13:59:58;21.85;;;10.60;;
46899;SDS011;32647;49.382;7.078;2022-12-07T14:02:59;15.32;;;10.07;;
46899;SDS011;32647;49.382;7.078;2022-12-07T14:09:05;23.20;;;12.30;;
46899;SDS011;32647;49.382;7.078;2022-12-07T14:12:05;23.98;;;12.18;;
46899;SDS011;32647;49.382;7.078;2022-12-07T14:14:51;18.60;;;10.73;;
46899;SDS011;32647;49.382;7.078;2022-12-07T14:17:49;18.33;;;10.43;;
46899;SDS011;32647;49.382;7.078;2022-12-07T14:20:38;17.15;;;10.13;;
46899;SDS011;32647;49.382;7.078;2022-12-07T14:23:25;18.83;;;11.15;;
46899;SDS011;32647;49.382;7.078;2022-12-07T14:26:18;20.23;;;11.90;;
46899;SDS011;32647;49.382;7.078;2022-12-07T14:32:31;19.30;;;11.77;;
46899;SDS011;32647;49.382;7.078;2022-12-07T14:35:17;16.05;;;9.30;;
46899;SDS011;32647;49.382;7.078;2022-12-07T14:38:04;16.45;;;10.55;;
46899;SDS011;32647;49.382;7.078;2022-12-07T14:40:50;18.00;;;11.30;;
46899;SDS011;32647;49.382;7.078;2022-12-07T14:43:37;14.68;;;9.48;;
46899;SDS011;32647;49.382;7.078;2022-12-07T14:46:23;16.25;;;10.85;;
46899;SDS011;32647;49.382;7.078;2022-12-07T14:49:09;19.75;;;12.90;;
46899;SDS011;32647;49.382;7.078;2022-12-07T14:51:55;14.93;;;9.82;;
46899;SDS011;32647;49.382;7.078;2022-12-07T14:54:41;16.98;;;10.23;;
46899;SDS011;32647;49.382;7.078;2022-12-07T14:57:28;16.27;;;10.02;;
46899;SDS011;32647;49.382;7.078;2022-12-07T15:00:14;19.48;;;11.70;;
46899;SDS011;32647;49.382;7.078;2022-12-07T15:03:02;26.92;;;15.60;;
46899;SDS011;32647;49.382;7.078;2022-12-07T15:05:48;25.48;;;13.55;;
46899;SDS011;32647;49.382;7.078;2022-12-07T15:08:34;22.63;;;10.75;;
46899;SDS011;32647;49.382;7.078;2022-12-07T15:11:20;15.35;;;9.98;;
46899;SDS011;32647;49.382;7.078;2022-12-07T15:14:06;15.80;;;9.65;;
46899;SDS011;32647;49.382;7.078;2022-12-07T15:16:53;14.85;;;9.20;;
46899;SDS011;32647;49.382;7.078;2022-12-07T15:19:39;15.20;;;9.95;;
46899;SDS011;32647;49.382;7.078;2022-12-07T15:22:24;13.93;;;9.00;;
46899;SDS011;32647;49.382;7.078;2022-12-07T15:25:13;17.27;;;8.80;;
46899;SDS011;32647;49.382;7.078;2022-12-07T15:28:00;17.23;;;9.55;;
46899;SDS011;32647;49.382;7.078;2022-12-07T15:30:46;14.07;;;9.70;;
46899;SDS011;32647;49.382;7.078;2022-12-07T15:33:32;14.93;;;10.52;;
46899;SDS011;32647;49.382;7.078;2022-12-07T15:36:19;16.58;;;10.18;;
46899;SDS011;32647;49.382;7.078;2022-12-07T15:39:09;16.90;;;10.65;;
46899;SDS011;32647;49.382;7.078;2022-12-07T15:41:55;15.20;;;10.18;;
46899;SDS011;32647;49.382;7.078;2022-12-07T15:44:41;16.88;;;10.32;;
46899;SDS011;32647;49.382;7.078;2022-12-07T15:47:46;18.73;;;11.25;;
46899;SDS011;32647;49.382;7.078;2022-12-07T15:50:32;22.85;;;12.18;;
46899;SDS011;32647;49.382;7.078;2022-12-07T15:53:17;17.33;;;9.98;;
46899;SDS011;32647;49.382;7.078;2022-12-07T15:56:07;18.48;;;9.75;;
46899;SDS011;32647;49.382;7.078;2022-12-07T15:58:55;16.90;;;11.07;;
46899;SDS011;32647;49.382;7.078;2022-12-07T16:01:42;23.30;;;12.68;;
46899;SDS011;32647;49.382;7.078;2022-12-07T16:04:28;22.17;;;11.75;;
46899;SDS011;32647;49.382;7.078;2022-12-07T16:07:15;23.80;;;13.65;;
46899;SDS011;32647;49.382;7.078;2022-12-07T16:10:01;20.05;;;13.02;;
46899;SDS011;32647;49.382;7.078;2022-12-07T16:12:47;23.52;;;13.05;;
46899;SDS011;32647;49.382;7.078;2022-12-07T16:15:33;22.00;;;13.70;;
46899;SDS011;32647;49.382;7.078;2022-12-07T16:18:23;19.50;;;11.80;;
46899;SDS011;32647;49.382;7.078;2022-12-07T16:21:09;20.13;;;12.18;;
46899;SDS011;32647;49.382;7.078;2022-12-07T16:23:57;24.63;;;14.18;;
46899;SDS011;32647;49.382;7.078;2022-12-07T16:26:44;25.10;;;14.20;;
46899;SDS011;32647;49.382;7.078;2022-12-07T16:29:30;25.23;;;16.08;;
46899;SDS011;32647;49.382;7.078;2022-12-07T16:32:16;28.05;;;17.27;;
46899;SDS011;32647;49.382;7.078;2022-12-07T16:35:02;26.75;;;15.75;;
46899;SDS011;32647;49.382;7.078;2022-12-07T16:37:48;24.27;;;13.35;;
46899;SDS011;32647;49.382;7.078;2022-12-07T16:40:34;22.05;;;13.30;;
46899;SDS011;32647;49.382;7.078;2022-12-07T16:43:20;20.35;;;12.80;;
46899;SDS011;32647;49.382;7.078;2022-12-07T16:46:06;21.98;;;12.68;;
46899;SDS011;32647;49.382;7.078;2022-12-07T16:48:52;24.52;;;13.88;;
46899;SDS011;32647;49.382;7.078;2022-12-07T16:51:38;23.85;;;15.25;;
46899;SDS011;32647;49.382;7.078;2022-12-07T16:54:24;22.90;;;13.93;;
46899;SDS011;32647;49.382;7.078;2022-12-07T16:57:10;23.42;;;14.82;;
46899;SDS011;32647;49.382;7.078;2022-12-07T16:59:56;25.98;;;15.00;;
46899;SDS011;32647;49.382;7.078;2022-12-07T17:02:42;28.77;;;15.88;;
46899;SDS011;32647;49.382;7.078;2022-12-07T17:05:28;28.10;;;16.80;;
46899;SDS011;32647;49.382;7.078;2022-12-07T17:08:15;23.33;;;15.20;;
46899;SDS011;32647;49.382;7.078;2022-12-07T17:11:01;25.02;;;14.57;;
46899;SDS011;32647;49.382;7.078;2022-12-07T17:13:54;24.27;;;15.13;;
46899;SDS011;32647;49.382;7.078;2022-12-07T17:16:58;26.63;;;15.38;;
46899;SDS011;32647;49.382;7.078;2022-12-07T17:19:44;25.83;;;15.90;;
46899;SDS011;32647;49.382;7.078;2022-12-07T17:22:30;25.35;;;15.10;;
46899;SDS011;32647;49.382;7.078;2022-12-07T17:25:16;26.60;;;16.35;;
46899;SDS011;32647;49.382;7.078;2022-12-07T17:28:02;30.83;;;17.98;;
46899;SDS011;32647;49.382;7.078;2022-12-07T17:30:48;31.45;;;17.02;;
46899;SDS011;32647;49.382;7.078;2022-12-07T17:33:34;24.30;;;16.48;;
46899;SDS011;32647;49.382;7.078;2022-12-07T17:36:25;26.20;;;16.35;;
46899;SDS011;32647;49.382;7.078;2022-12-07T17:39:17;26.77;;;16.85;;
46899;SDS011;32647;49.382;7.078;2022-12-07T17:42:03;31.77;;;18.08;;
46899;SDS011;32647;49.382;7.078;2022-12-07T17:45:08;24.02;;;15.43;;
46899;SDS011;32647;49.382;7.078;2022-12-07T17:47:55;28.80;;;16.13;;
46899;SDS011;32647;49.382;7.078;2022-12-07T17:50:41;26.15;;;15.27;;
46899;SDS011;32647;49.382;7.078;2022-12-07T17:53:49;28.97;;;15.47;;
46899;SDS011;32647;49.382;7.078;2022-12-07T17:56:36;29.70;;;18.10;;
46899;SDS011;32647;49.382;7.078;2022-12-07T17:59:23;29.48;;;16.05;;
46899;SDS011;32647;49.382;7.078;2022-12-07T18:02:09;26.55;;;16.63;;
46899;SDS011;32647;49.382;7.078;2022-12-07T18:04:55;29.90;;;16.52;;
46899;SDS011;32647;49.382;7.078;2022-12-07T18:07:41;25.52;;;15.27;;
46899;SDS011;32647;49.382;7.078;2022-12-07T18:10:27;29.55;;;16.40;;
46899;SDS011;32647;49.382;7.078;2022-12-07T18:13:13;27.45;;;15.43;;
46899;SDS011;32647;49.382;7.078;2022-12-07T18:16:19;32.08;;;16.75;;
46899;SDS011;32647;49.382;7.078;2022-12-07T18:19:07;26.08;;;15.30;;
46899;SDS011;32647;49.382;7.078;2022-12-07T18:21:53;32.67;;;15.90;;
46899;SDS011;32647;49.382;7.078;2022-12-07T18:24:39;31.45;;;15.55;;
46899;SDS011;32647;49.382;7.078;2022-12-07T18:27:25;27.85;;;14.85;;
46899;SDS011;32647;49.382;7.078;2022-12-07T18:30:11;27.10;;;15.40;;
46899;SDS011;32647;49.382;7.078;2022-12-07T18:32:58;27.60;;;15.90;;
46899;SDS011;32647;49.382;7.078;2022-12-07T18:35:44;27.25;;;16.17;;
46899;SDS011;32647;49.382;7.078;2022-12-07T18:38:32;29.38;;;16.13;;